createdAt,value
2016-10-30T16:10:18.890Z,67.44
2016-10-30T16:11:33.660Z,67.16
2016-10-30T16:12:18.856Z,66.77
2016-10-30T16:13:18.694Z,66.83
2016-10-30T16:14:33.371Z,66.74
2016-10-30T16:15:18.638Z,67.02
2016-10-30T16:16:18.716Z,67.06
2016-10-30T16:17:18.647Z,66.74
2016-10-30T16:18:18.636Z,66.83
2016-10-30T16:19:18.551Z,66.58
2016-10-30T16:20:18.559Z,66.58
2016-10-30T16:21:18.522Z,67.6
2016-10-30T16:22:18.445Z,67.54
2016-10-30T16:23:18.448Z,66.83
2016-10-30T16:24:18.348Z,66.74
2016-10-30T16:25:18.765Z,67.54
2016-10-30T16:26:18.734Z,67.54
2016-10-30T16:27:33.032Z,66.93
2016-10-30T16:28:18.303Z,67.22
2016-10-30T16:29:18.237Z,67.32
2016-10-30T16:30:18.209Z,66.93
2016-10-30T16:31:18.178Z,66.74
2016-10-30T16:32:18.185Z,67.02
2016-10-30T16:33:18.121Z,67.32
2016-10-30T16:34:18.081Z,67.41
2016-10-30T16:35:18.060Z,67.6
2016-10-30T16:36:18.184Z,67.5
2016-10-30T16:37:17.988Z,67.32
2016-10-30T16:38:18.006Z,67.41
2016-10-30T16:39:17.940Z,67.41
2016-10-30T16:40:17.917Z,67.32
2016-10-30T16:41:17.915Z,67.89
2016-10-30T16:43:55.717Z,67.89
2016-10-30T16:44:41.260Z,67.99
2016-10-30T16:45:40.994Z,68.18
2016-10-30T16:46:40.951Z,68.18
2016-10-30T16:47:40.915Z,67.99
2016-10-30T16:48:40.861Z,67.79
2016-10-30T16:49:40.828Z,67.79
2016-10-30T16:50:40.855Z,67.79
2016-10-30T16:51:40.790Z,68.18
2016-10-30T16:52:40.755Z,67.79
2016-10-30T16:53:40.798Z,68.08
2016-10-30T16:54:40.784Z,67.99
2016-10-30T16:55:40.738Z,67.89
2016-10-30T16:56:40.838Z,68.43
2016-10-30T16:57:40.602Z,67.76
2016-10-30T16:58:40.593Z,68.33
2016-10-30T16:59:40.614Z,68.24
2016-10-30T17:00:40.553Z,68.05
2016-10-30T17:01:40.527Z,68.62
2016-10-30T17:02:40.542Z,68.52
2016-10-30T17:03:40.464Z,68.52
2016-10-30T17:08:26.713Z,68.81
2016-10-30T17:09:26.671Z,69.1
2016-10-30T17:10:27.279Z,69.2
2016-10-30T17:11:26.863Z,69.1
2016-10-30T17:12:26.638Z,68.91
2016-10-30T17:13:26.565Z,68.72
2016-10-30T17:14:26.631Z,68.81
2016-10-30T17:15:27.001Z,69.01
2016-10-30T17:17:26.484Z,69.1
2016-10-30T17:18:26.801Z,69.29
2016-10-30T17:19:27.051Z,69.2
2016-10-30T17:20:26.740Z,68.81
2016-10-30T17:21:26.321Z,69.29
2016-10-30T17:23:26.643Z,69.26
2016-10-30T17:25:26.362Z,69.07
2016-10-30T17:26:40.944Z,68.97
2016-10-30T17:27:26.306Z,68.97
2016-10-30T17:29:26.171Z,68.87
2016-10-30T17:31:40.756Z,68.68
2016-10-30T17:32:40.733Z,69.07
2016-10-30T17:33:26.420Z,69.35
2016-10-30T17:34:25.956Z,69.64
2016-10-30T17:35:27.062Z,69.74
2016-10-30T17:36:25.970Z,69.45
2016-10-30T17:37:26.692Z,69.35
2016-10-30T17:38:25.969Z,69.83
2016-10-30T17:39:25.869Z,69.64
